Time;durP1;ratioP1;P1;durP2;ratioP2;P2;SDS_P1;SDS_P2;PMS_P1;PMS_P2;Temp;Humidity;BMP_temperature;BMP_pressure;BME280_temperature;BME280_humidity;BME280_pressure;Samples;Min_cycle;Max_cycle;Signal;HPM_P1;HPM_P2
2023/06/18 00:00:49;;;;;;;10.90;9.50;;;23.00;46.50;;;;;;4909370;29;20487;-88
2023/06/18 00:03:16;;;;;;;12.10;9.50;;;22.90;47.00;;;;;;4929614;29;20905;-87
2023/06/18 00:05:43;;;;;;;10.00;9.10;;;22.90;46.90;;;;;;4910938;29;20490;-88
2023/06/18 00:08:10;;;;;;;12.63;8.70;;;22.80;46.30;;;;;;4925610;29;20469;-87
2023/06/18 00:10:38;;;;;;;11.23;9.70;;;22.70;46.70;;;;;;4920004;29;20474;-88
2023/06/18 00:13:06;;;;;;;11.70;9.50;;;22.70;47.40;;;;;;4909029;29;20459;-88
2023/06/18 00:15:33;;;;;;;12.17;10.00;;;22.60;47.60;;;;;;4925442;29;20869;-88
2023/06/18 00:18:00;;;;;;;10.50;9.30;;;22.60;47.50;;;;;;4917735;29;20479;-88
2023/06/18 00:20:27;;;;;;;11.13;8.90;;;22.60;47.70;;;;;;4912271;29;20467;-88
2023/06/18 00:22:55;;;;;;;12.97;10.10;;;22.60;47.80;;;;;;4909579;29;20545;-88
2023/06/18 00:25:22;;;;;;;10.77;9.60;;;22.50;48.00;;;;;;4903312;29;20546;-88
2023/06/18 00:27:51;;;;;;;11.97;9.23;;;22.50;47.90;;;;;;4907889;29;20467;-89
2023/06/18 00:30:18;;;;;;;10.77;9.70;;;22.50;47.70;;;;;;4908870;29;20487;-88
2023/06/18 00:32:45;;;;;;;10.67;9.67;;;22.40;47.60;;;;;;4910398;29;20450;-88
2023/06/18 00:35:14;;;;;;;11.00;9.83;;;22.40;47.60;;;;;;4919940;29;20477;-89
2023/06/18 00:37:43;;;;;;;13.70;10.07;;;22.40;47.70;;;;;;4902036;29;20557;-88
2023/06/18 00:40:12;;;;;;;11.87;10.07;;;22.30;47.70;;;;;;4919071;29;21113;-88
2023/06/18 00:42:40;;;;;;;10.37;9.23;;;22.30;48.10;;;;;;4905629;29;20458;-88
2023/06/18 00:45:12;;;;;;;10.23;9.00;;;22.20;47.90;;;;;;4936022;28;20457;-88
2023/06/18 00:47:40;;;;;;;12.33;9.43;;;22.20;47.90;;;;;;4904112;29;20849;-88
2023/06/18 00:50:08;;;;;;;10.33;9.40;;;22.10;47.40;;;;;;4904813;29;20482;-87
2023/06/18 00:52:37;;;;;;;9.40;8.40;;;22.10;47.40;;;;;;4925240;29;20462;-88
2023/06/18 00:55:05;;;;;;;11.00;9.63;;;22.10;47.80;;;;;;4939942;29;20479;-88
2023/06/18 00:57:34;;;;;;;17.43;10.90;;;22.00;47.90;;;;;;4924026;29;20474;-86
2023/06/18 01:00:04;;;;;;;11.37;10.07;;;22.00;48.00;;;;;;4917121;29;20474;-88
2023/06/18 01:02:33;;;;;;;12.17;9.40;;;22.00;47.90;;;;;;4909903;29;20446;-89
2023/06/18 01:05:00;;;;;;;11.40;8.93;;;21.90;48.70;;;;;;4916867;29;20470;-87
2023/06/18 01:07:29;;;;;;;12.57;10.67;;;22.00;48.50;;;;;;4925259;29;21217;-88
2023/06/18 01:09:57;;;;;;;10.43;9.23;;;21.90;49.10;;;;;;4899039;29;20471;-87
2023/06/18 01:12:27;;;;;;;10.97;9.77;;;21.90;49.10;;;;;;4912020;29;20458;-88
2023/06/18 01:14:55;;;;;;;13.10;10.70;;;21.80;48.80;;;;;;4908706;29;20772;-88
2023/06/18 01:17:23;;;;;;;11.60;9.23;;;21.80;48.20;;;;;;4905405;29;20477;-88
2023/06/18 01:19:56;;;;;;;10.50;8.40;;;21.80;47.70;;;;;;4907631;29;20516;-89
2023/06/18 01:22:32;;;;;;;10.20;9.13;;;21.70;47.20;;;;;;4912248;29;21009;-87
2023/06/18 01:25:02;;;;;;;10.07;9.07;;;21.60;47.50;;;;;;4919352;29;21047;-88
2023/06/18 01:27:33;;;;;;;13.00;9.47;;;21.60;48.40;;;;;;4910026;29;20454;-88
2023/06/18 01:30:03;;;;;;;11.73;10.40;;;21.50;48.80;;;;;;4922183;29;20493;-88
2023/06/18 01:32:31;;;;;;;11.33;9.70;;;21.50;49.20;;;;;;4927675;29;20661;-87
2023/06/18 01:35:01;;;;;;;13.20;10.97;;;21.50;49.20;;;;;;4899090;29;20558;-87
2023/06/18 01:37:37;;;;;;;13.77;9.13;;;21.50;49.40;;;;;;4910533;29;20474;-88
2023/06/18 01:40:16;;;;;;;12.73;9.00;;;21.40;49.30;;;;;;4908921;29;20502;-88
2023/06/18 01:42:50;;;;;;;10.90;9.60;;;21.40;49.40;;;;;;4925463;29;20550;-87
2023/06/18 01:45:23;;;;;;;10.70;9.57;;;21.40;49.60;;;;;;4910893;29;20447;-88
2023/06/18 01:47:55;;;;;;;11.43;9.70;;;21.40;49.70;;;;;;4923660;29;20454;-89
2023/06/18 01:50:27;;;;;;;12.30;9.70;;;21.40;49.80;;;;;;4910138;29;20566;-87
2023/06/18 01:52:57;;;;;;;12.50;10.23;;;21.30;49.80;;;;;;4932407;28;20969;-88
2023/06/18 01:55:28;;;;;;;10.90;9.70;;;21.30;49.90;;;;;;4925622;29;20461;-88
2023/06/18 01:57:56;;;;;;;10.70;9.57;;;21.30;50.20;;;;;;4923447;29;20532;-88
2023/06/18 02:00:24;;;;;;;14.37;10.97;;;21.20;50.60;;;;;;4924024;29;20849;-87
2023/06/18 02:02:52;;;;;;;11.00;9.50;;;21.20;51.00;;;;;;4929908;29;20479;-88
2023/06/18 02:05:20;;;;;;;12.50;10.03;;;21.20;50.70;;;;;;4909803;29;21013;-86
2023/06/18 02:07:48;;;;;;;12.40;9.80;;;21.20;50.40;;;;;;4919914;29;20504;-87
2023/06/18 02:10:15;;;;;;;13.40;10.17;;;21.20;50.50;;;;;;4920312;29;20481;-87
2023/06/18 02:12:43;;;;;;;11.27;10.07;;;21.10;50.30;;;;;;4905592;29;20941;-88
2023/06/18 02:15:11;;;;;;;13.07;10.67;;;21.10;50.30;;;;;;4919159;29;20459;-87
2023/06/18 02:17:38;;;;;;;11.17;10.07;;;21.10;51.10;;;;;;4910097;29;20474;-88
2023/06/18 02:20:07;;;;;;;13.23;10.47;;;21.00;50.10;;;;;;4906132;29;20532;-87
2023/06/18 02:22:35;;;;;;;11.40;10.20;;;21.00;49.80;;;;;;4901157;29;20503;-88
2023/06/18 02:25:04;;;;;;;10.90;9.30;;;21.00;49.80;;;;;;4919738;29;20465;-88
2023/06/18 02:27:31;;;;;;;12.20;10.20;;;21.00;49.90;;;;;;4917823;29;20475;-87
2023/06/18 02:30:01;;;;;;;13.13;10.47;;;20.90;49.80;;;;;;4903544;29;20545;-89
2023/06/18 02:32:31;;;;;;;10.93;9.60;;;20.70;50.10;;;;;;4921669;29;20944;-86
2023/06/18 02:34:59;;;;;;;13.07;10.20;;;20.50;50.50;;;;;;4931460;29;20533;-87
2023/06/18 02:37:32;;;;;;;13.00;11.20;;;20.50;50.20;;;;;;4910524;29;20476;-89
2023/06/18 02:40:01;;;;;;;11.73;10.23;;;20.60;49.80;;;;;;4903740;29;20476;-87
2023/06/18 02:42:31;;;;;;;11.50;10.30;;;20.60;49.50;;;;;;4902418;29;20463;-89
2023/06/18 02:44:58;;;;;;;10.73;9.63;;;20.60;49.50;;;;;;4919727;29;20468;-87
2023/06/18 02:47:25;;;;;;;11.83;9.67;;;20.60;49.40;;;;;;4929215;29;20828;-87
2023/06/18 02:49:53;;;;;;;12.17;9.77;;;20.50;49.40;;;;;;4911244;29;20532;-87
2023/06/18 02:52:20;;;;;;;12.23;10.07;;;20.50;49.70;;;;;;4936578;28;20471;-87
2023/06/18 02:54:47;;;;;;;11.10;9.50;;;20.50;49.70;;;;;;4921654;29;20561;-87
2023/06/18 02:57:15;;;;;;;16.97;10.70;;;20.50;49.80;;;;;;4922893;29;21102;-88
2023/06/18 02:59:44;;;;;;;13.57;10.97;;;20.50;50.00;;;;;;4920209;29;20566;-88
2023/06/18 03:02:11;;;;;;;11.60;9.80;;;20.40;50.00;;;;;;4927233;29;20472;-88
2023/06/18 03:04:38;;;;;;;11.67;10.20;;;20.40;50.20;;;;;;4923087;29;20520;-87
2023/06/18 03:07:06;;;;;;;12.60;9.80;;;20.40;50.50;;;;;;4928286;29;20446;-87
2023/06/18 03:09:33;;;;;;;11.67;9.60;;;20.40;50.60;;;;;;4911185;29;20569;-88
2023/06/18 03:12:03;;;;;;;12.30;9.70;;;20.30;50.80;;;;;;4900799;29;20458;-87
2023/06/18 03:14:31;;;;;;;14.17;10.30;;;20.30;51.50;;;;;;4920405;29;20462;-88
2023/06/18 03:17:00;;;;;;;12.30;10.17;;;20.30;51.70;;;;;;4917937;29;20570;-88
2023/06/18 03:19:29;;;;;;;12.60;10.40;;;20.30;50.70;;;;;;4907819;29;20510;-88
2023/06/18 03:21:56;;;;;;;10.87;9.57;;;20.30;50.70;;;;;;4913210;29;20577;-87
2023/06/18 03:24:24;;;;;;;12.93;10.00;;;20.30;50.80;;;;;;4919988;29;20446;-88
2023/06/18 03:26:51;;;;;;;11.30;9.83;;;20.30;50.80;;;;;;4907036;29;20478;-88
2023/06/18 03:29:22;;;;;;;10.73;9.63;;;20.20;50.90;;;;;;4906995;29;20473;-88
2023/06/18 03:31:49;;;;;;;11.10;9.90;;;20.20;50.80;;;;;;4913726;29;20462;-87
2023/06/18 03:34:20;;;;;;;14.80;9.93;;;20.20;51.20;;;;;;4910501;29;20490;-88
2023/06/18 03:36:48;;;;;;;13.70;10.87;;;20.20;50.90;;;;;;4904385;29;20457;-88
2023/06/18 03:39:16;;;;;;;12.63;10.90;;;20.20;51.20;;;;;;4923243;29;20481;-87
2023/06/18 03:41:44;;;;;;;11.90;10.30;;;20.20;51.20;;;;;;4906626;29;20439;-87
2023/06/18 03:44:13;;;;;;;15.13;9.90;;;20.20;51.30;;;;;;4911032;29;20470;-87
2023/06/18 03:46:40;;;;;;;10.70;9.00;;;20.20;51.60;;;;;;4928886;29;20495;-89
2023/06/18 03:49:08;;;;;;;9.77;8.77;;;20.10;51.10;;;;;;4906512;29;20463;-88
2023/06/18 03:51:36;;;;;;;10.43;9.03;;;20.20;51.40;;;;;;4927065;29;20522;-87
2023/06/18 03:54:04;;;;;;;10.00;8.47;;;20.20;51.30;;;;;;4910357;29;20482;-88
2023/06/18 03:56:31;;;;;;;11.60;9.30;;;20.20;51.20;;;;;;4910092;29;20454;-89
2023/06/18 03:58:58;;;;;;;11.67;10.10;;;20.10;51.20;;;;;;4920392;29;20487;-87
2023/06/18 04:01:27;;;;;;;12.03;9.33;;;20.10;51.20;;;;;;4904303;29;20450;-89
2023/06/18 04:03:56;;;;;;;11.93;9.20;;;20.10;51.30;;;;;;4916165;29;20472;-88
2023/06/18 04:06:24;;;;;;;10.87;9.10;;;20.10;51.40;;;;;;4920503;29;20450;-88
2023/06/18 04:08:52;;;;;;;9.47;8.47;;;20.10;51.40;;;;;;4920044;29;20593;-87
2023/06/18 04:11:19;;;;;;;12.13;9.60;;;20.00;51.40;;;;;;4913437;29;20619;-87
2023/06/18 04:13:47;;;;;;;12.30;10.87;;;20.10;51.70;;;;;;4915947;29;20454;-88
2023/06/18 04:16:15;;;;;;;11.80;10.57;;;20.00;51.10;;;;;;4907228;29;20482;-89
2023/06/18 04:18:43;;;;;;;11.73;10.17;;;19.80;51.30;;;;;;4913489;28;20478;-87
2023/06/18 04:21:10;;;;;;;12.43;9.50;;;19.90;51.90;;;;;;4920823;29;20454;-86
2023/06/18 04:23:40;;;;;;;10.53;9.37;;;19.90;51.70;;;;;;4910971;29;20542;-88
2023/06/18 04:26:09;;;;;;;13.73;9.70;;;20.00;51.50;;;;;;4909031;29;20544;-88
2023/06/18 04:28:38;;;;;;;14.60;9.97;;;20.10;51.50;;;;;;4911069;29;20455;-88
2023/06/18 04:31:06;;;;;;;11.60;10.40;;;20.10;51.50;;;;;;4903266;29;20459;-86
2023/06/18 04:33:34;;;;;;;19.77;10.43;;;20.10;51.50;;;;;;4907596;29;20550;-88
2023/06/18 04:36:01;;;;;;;11.30;9.40;;;20.10;51.50;;;;;;4921649;29;20465;-88
2023/06/18 04:38:29;;;;;;;13.80;10.00;;;20.10;51.90;;;;;;4911184;29;20481;-87
2023/06/18 04:40:56;;;;;;;14.00;11.33;;;20.10;52.10;;;;;;4927246;29;20482;-88
2023/06/18 04:43:25;;;;;;;17.33;11.30;;;20.20;52.60;;;;;;4921961;29;20454;-88
2023/06/18 04:45:52;;;;;;;12.80;10.70;;;20.10;52.80;;;;;;4920688;29;20450;-89
2023/06/18 04:48:22;;;;;;;14.63;11.47;;;20.10;53.00;;;;;;4922151;29;20983;-89
2023/06/18 04:50:50;;;;;;;12.10;10.63;;;20.10;52.80;;;;;;4911489;29;21552;-87
2023/06/18 04:53:18;;;;;;;17.23;10.93;;;20.10;53.00;;;;;;4913317;29;20458;-89
2023/06/18 04:55:49;;;;;;;12.70;10.50;;;20.20;52.90;;;;;;4921347;29;20518;-89
2023/06/18 04:58:17;;;;;;;13.70;11.30;;;20.10;52.80;;;;;;4922183;29;20908;-89
2023/06/18 05:00:47;;;;;;;12.10;10.30;;;20.20;53.10;;;;;;4914646;29;20698;-88
2023/06/18 05:03:14;;;;;;;12.60;10.40;;;20.10;53.00;;;;;;4904732;29;21056;-88
2023/06/18 05:05:41;;;;;;;11.97;10.60;;;20.10;53.20;;;;;;4904421;29;20482;-89
2023/06/18 05:08:08;;;;;;;12.57;10.97;;;20.20;53.30;;;;;;4921513;29;20447;-90
2023/06/18 05:10:35;;;;;;;14.63;10.70;;;20.20;53.10;;;;;;4913749;29;20466;-88
2023/06/18 05:13:03;;;;;;;14.50;11.17;;;20.20;53.20;;;;;;4922246;29;20538;-88
2023/06/18 05:15:31;;;;;;;17.27;11.80;;;20.10;53.30;;;;;;4920341;29;20558;-87
2023/06/18 05:18:01;;;;;;;13.23;11.33;;;20.10;53.10;;;;;;4922336;29;20552;-87
2023/06/18 05:20:29;;;;;;;13.80;11.90;;;20.10;53.30;;;;;;4923608;29;20536;-88
2023/06/18 05:22:56;;;;;;;14.50;10.47;;;20.20;53.30;;;;;;4902311;29;20485;-88
2023/06/18 05:25:27;;;;;;;14.77;10.70;;;20.30;53.30;;;;;;4922359;29;21002;-89
2023/06/18 05:27:54;;;;;;;12.57;10.53;;;20.40;53.30;;;;;;4917933;29;20447;-87
2023/06/18 05:30:22;;;;;;;13.10;11.17;;;20.40;52.70;;;;;;4912975;29;20505;-89
2023/06/18 05:32:50;;;;;;;13.50;10.60;;;20.50;52.60;;;;;;4939791;29;20456;-89
2023/06/18 05:35:19;;;;;;;12.47;11.17;;;20.60;52.60;;;;;;4926160;29;21228;-89
2023/06/18 05:37:52;;;;;;;12.33;10.87;;;20.60;52.70;;;;;;4908982;29;20557;-88
2023/06/18 05:40:19;;;;;;;13.20;11.47;;;20.60;52.70;;;;;;4912265;29;20947;-88
2023/06/18 05:42:47;;;;;;;14.63;11.13;;;20.60;52.30;;;;;;4907754;29;20443;-89
2023/06/18 05:45:15;;;;;;;14.43;11.03;;;20.70;52.40;;;;;;4920785;29;20446;-88
2023/06/18 05:47:45;;;;;;;12.87;9.90;;;20.70;52.10;;;;;;4910746;29;21324;-87
2023/06/18 05:50:19;;;;;;;12.43;10.47;;;20.80;51.90;;;;;;4911193;29;21478;-88
2023/06/18 05:52:48;;;;;;;12.40;9.30;;;20.90;51.70;;;;;;4905037;29;20462;-86
2023/06/18 05:55:16;;;;;;;12.80;10.40;;;20.90;51.50;;;;;;4901351;29;20567;-87
2023/06/18 05:57:44;;;;;;;13.70;9.83;;;20.90;51.60;;;;;;4921073;29;20454;-90
2023/06/18 06:00:12;;;;;;;11.77;9.10;;;20.80;51.40;;;;;;4908240;29;20482;-89
2023/06/18 06:02:44;;;;;;;13.77;9.93;;;20.50;52.00;;;;;;4928626;29;20463;-87
2023/06/18 06:05:20;;;;;;;11.80;10.00;;;20.60;52.00;;;;;;4911826;29;20465;-88
2023/06/18 06:07:49;;;;;;;12.73;9.27;;;20.50;51.90;;;;;;4906159;29;20541;-88
2023/06/18 06:10:18;;;;;;;14.83;9.20;;;20.70;51.40;;;;;;4904485;29;20482;-88
2023/06/18 06:12:46;;;;;;;10.33;8.80;;;20.70;51.60;;;;;;4904662;29;20493;-87
2023/06/18 06:15:13;;;;;;;12.57;10.00;;;20.80;51.60;;;;;;4905816;29;20462;-87
2023/06/18 06:17:40;;;;;;;9.43;8.53;;;20.90;51.10;;;;;;4927530;29;20850;-87
2023/06/18 06:20:09;;;;;;;13.57;10.30;;;21.10;51.00;;;;;;4909834;29;20499;-88
2023/06/18 06:22:38;;;;;;;11.40;9.63;;;21.20;50.10;;;;;;4931901;29;20453;-89
2023/06/18 06:25:07;;;;;;;9.90;8.37;;;21.50;50.20;;;;;;4923841;29;20478;-88
2023/06/18 06:27:34;;;;;;;16.33;9.60;;;21.70;50.10;;;;;;4926608;29;20482;-89
2023/06/18 06:30:01;;;;;;;9.90;8.90;;;21.90;49.40;;;;;;4910396;29;20849;-87
2023/06/18 06:32:30;;;;;;;11.50;9.27;;;21.90;49.50;;;;;;4915573;29;20565;-88
2023/06/18 06:34:58;;;;;;;16.00;10.07;;;21.50;49.70;;;;;;4929293;29;20459;-90
2023/06/18 06:37:26;;;;;;;10.50;9.20;;;21.50;50.00;;;;;;4908069;29;20462;-88
2023/06/18 06:39:57;;;;;;;11.03;9.93;;;21.70;49.80;;;;;;4938364;29;20518;-87
2023/06/18 06:42:25;;;;;;;10.17;8.57;;;21.70;49.50;;;;;;4908703;29;20454;-89
2023/06/18 06:45:11;;;;;;;15.57;9.63;;;22.00;49.30;;;;;;4928938;29;20966;-88
2023/06/18 06:47:58;;;;;;;11.03;9.23;;;22.30;48.60;;;;;;4925476;29;20545;-89
2023/06/18 06:50:40;;;;;;;14.60;8.80;;;22.30;48.60;;;;;;4914431;29;20473;-88
2023/06/18 06:53:22;;;;;;;10.80;8.33;;;22.50;48.60;;;;;;4901806;29;20482;-89
2023/06/18 06:55:51;;;;;;;13.73;9.17;;;22.40;48.40;;;;;;4934798;29;20453;-89
2023/06/18 06:58:21;;;;;;;11.57;8.87;;;22.50;48.10;;;;;;4938082;28;20473;-89
2023/06/18 07:00:48;;;;;;;10.50;8.67;;;22.70;48.10;;;;;;4929783;29;20477;-89
2023/06/18 07:03:16;;;;;;;11.83;8.77;;;22.90;47.50;;;;;;4918141;29;20498;-87
2023/06/18 07:05:44;;;;;;;11.23;10.00;;;22.80;47.80;;;;;;4922913;29;20448;-87
2023/06/18 07:08:11;;;;;;;10.13;8.33;;;22.90;48.30;;;;;;4916046;29;20827;-89
2023/06/18 07:10:38;;;;;;;10.83;8.33;;;23.20;47.30;;;;;;4923148;29;20561;-88
2023/06/18 07:13:07;;;;;;;10.73;9.53;;;23.10;47.50;;;;;;4916993;29;20465;-88
2023/06/18 07:15:34;;;;;;;10.33;9.27;;;23.10;47.10;;;;;;4919280;29;20463;-89
2023/06/18 07:18:01;;;;;;;10.57;8.60;;;23.20;47.60;;;;;;4919132;29;20543;-89
2023/06/18 07:20:28;;;;;;;11.13;8.90;;;23.40;47.40;;;;;;4923415;29;20902;-89
2023/06/18 07:22:56;;;;;;;10.70;8.13;;;23.50;47.20;;;;;;4908141;29;20544;-88
2023/06/18 07:25:23;;;;;;;9.93;8.80;;;23.60;47.50;;;;;;4918884;29;20463;-89
2023/06/18 07:27:51;;;;;;;12.57;9.47;;;23.70;47.10;;;;;;4905527;29;20987;-88
2023/06/18 07:30:19;;;;;;;10.87;9.77;;;24.00;47.10;;;;;;4925235;29;20486;-87
2023/06/18 07:32:46;;;;;;;9.73;8.80;;;24.40;46.90;;;;;;4908458;29;20451;-88
2023/06/18 07:35:13;;;;;;;10.23;8.57;;;24.50;46.00;;;;;;4904137;29;20463;-87
2023/06/18 07:37:40;;;;;;;18.27;9.87;;;24.70;46.10;;;;;;4937336;29;20458;-88
2023/06/18 07:40:08;;;;;;;10.03;8.97;;;25.00;46.10;;;;;;4910654;29;21027;-87
2023/06/18 07:42:35;;;;;;;12.50;9.80;;;25.20;45.40;;;;;;4929919;29;20469;-88
2023/06/18 07:45:02;;;;;;;8.90;8.07;;;25.40;45.10;;;;;;4919414;29;20489;-88
2023/06/18 07:47:31;;;;;;;11.13;9.20;;;25.50;44.70;;;;;;4921225;29;20455;-87
2023/06/18 07:50:00;;;;;;;9.40;8.50;;;25.50;44.80;;;;;;4926037;29;20459;-87
2023/06/18 07:52:27;;;;;;;10.37;8.80;;;25.30;45.40;;;;;;4917383;29;20514;-88
2023/06/18 07:54:54;;;;;;;13.30;9.63;;;25.30;45.30;;;;;;4899118;29;20462;-88
2023/06/18 07:57:22;;;;;;;10.63;9.10;;;25.60;45.20;;;;;;4902897;29;20455;-87
2023/06/18 07:59:50;;;;;;;10.10;9.10;;;25.50;44.50;;;;;;4911394;29;20480;-87
2023/06/18 08:02:16;;;;;;;10.10;8.73;;;25.70;45.00;;;;;;4900050;29;21017;-89
2023/06/18 08:04:45;;;;;;;13.40;9.10;;;25.90;44.80;;;;;;4935976;28;20459;-87
2023/06/18 08:07:12;;;;;;;14.13;8.90;;;26.10;45.00;;;;;;4909998;29;20481;-86
2023/06/18 08:09:40;;;;;;;10.87;9.13;;;26.30;45.00;;;;;;4916501;29;20951;-88
2023/06/18 08:12:08;;;;;;;10.50;8.00;;;26.50;44.70;;;;;;4908766;29;20504;-87
2023/06/18 08:14:36;;;;;;;11.10;9.97;;;26.60;44.30;;;;;;4908595;29;20509;-88
2023/06/18 08:17:03;;;;;;;10.33;9.33;;;26.80;44.00;;;;;;4917139;29;20451;-87
2023/06/18 08:19:30;;;;;;;11.00;9.20;;;26.90;43.80;;;;;;4917797;29;20475;-87
2023/06/18 08:21:58;;;;;;;11.20;8.60;;;26.80;43.20;;;;;;4916860;29;20578;-88
2023/06/18 08:24:25;;;;;;;8.90;8.10;;;26.80;43.50;;;;;;4904385;29;20451;-86
2023/06/18 08:26:52;;;;;;;10.10;8.40;;;27.10;43.80;;;;;;4934164;29;20454;-87
2023/06/18 08:29:19;;;;;;;10.10;9.07;;;27.30;43.10;;;;;;4913932;29;21155;-87
2023/06/18 08:31:46;;;;;;;9.63;8.63;;;27.50;43.20;;;;;;4909223;29;20454;-88
2023/06/18 08:34:13;;;;;;;11.70;9.13;;;27.70;42.30;;;;;;4918916;29;20450;-88
2023/06/18 08:36:40;;;;;;;11.23;8.83;;;27.70;42.50;;;;;;4929775;29;20512;-87
2023/06/18 08:39:08;;;;;;;10.67;9.60;;;27.80;42.80;;;;;;4921411;28;20500;-87
2023/06/18 08:41:35;;;;;;;10.20;8.60;;;28.00;43.10;;;;;;4934065;29;20450;-88
2023/06/18 08:44:02;;;;;;;12.67;9.27;;;28.10;41.90;;;;;;4908479;29;20451;-87
2023/06/18 08:46:32;;;;;;;10.40;9.40;;;28.20;41.20;;;;;;4904340;29;20962;-87
2023/06/18 08:49:02;;;;;;;9.70;8.20;;;28.30;41.50;;;;;;4932384;28;20542;-86
2023/06/18 08:51:29;;;;;;;11.27;9.43;;;28.50;41.20;;;;;;4907610;29;20458;-88
2023/06/18 08:54:05;;;;;;;10.37;9.13;;;28.70;41.50;;;;;;4912786;29;20459;-88
2023/06/18 08:56:37;;;;;;;8.73;7.90;;;28.80;40.70;;;;;;4924274;29;20461;-87
2023/06/18 08:59:04;;;;;;;11.10;8.50;;;28.90;40.10;;;;;;4922448;29;20485;-88
2023/06/18 09:01:34;;;;;;;10.00;7.87;;;28.90;40.30;;;;;;4931308;29;21022;-87
2023/06/18 09:04:03;;;;;;;14.03;8.77;;;28.80;39.70;;;;;;4919284;29;20546;-86
2023/06/18 09:06:31;;;;;;;11.83;9.20;;;28.80;40.10;;;;;;4915023;29;20466;-86
2023/06/18 09:09:00;;;;;;;9.50;8.50;;;29.00;40.20;;;;;;4930795;28;20493;-86
2023/06/18 09:11:27;;;;;;;10.80;8.63;;;29.10;40.80;;;;;;4904049;29;20459;-87
2023/06/18 09:13:57;;;;;;;9.33;8.20;;;29.40;40.70;;;;;;4913720;29;20459;-84
2023/06/18 09:16:25;;;;;;;10.83;9.63;;;29.40;37.80;;;;;;4897374;29;20453;-86
2023/06/18 09:18:53;;;;;;;9.33;7.93;;;29.30;37.30;;;;;;4917066;29;20474;-85
2023/06/18 09:21:34;;;;;;;8.63;7.57;;;29.30;38.40;;;;;;4917413;29;21053;-86
2023/06/18 09:24:02;;;;;;;10.43;8.87;;;29.40;37.80;;;;;;4904161;29;21019;-85
2023/06/18 09:26:33;;;;;;;10.50;8.60;;;29.50;37.60;;;;;;4908215;29;20487;-88
2023/06/18 09:29:05;;;;;;;8.60;7.70;;;29.70;38.30;;;;;;4913202;29;20473;-85
2023/06/18 09:31:32;;;;;;;8.23;7.43;;;29.90;36.30;;;;;;4911549;29;20457;-86
2023/06/18 09:34:12;;;;;;;10.93;8.03;;;30.20;35.20;;;;;;4912119;29;20451;-86
2023/06/18 09:36:41;;;;;;;9.80;7.63;;;30.30;35.20;;;;;;4908560;29;20478;-88
2023/06/18 09:39:15;;;;;;;10.63;8.10;;;30.30;36.30;;;;;;4904868;29;20995;-87
2023/06/18 09:41:44;;;;;;;8.60;7.73;;;30.50;35.60;;;;;;4906624;29;20466;-86
2023/06/18 09:44:13;;;;;;;9.07;8.17;;;30.90;36.60;;;;;;4909881;29;20459;-86
2023/06/18 09:46:43;;;;;;;8.07;7.27;;;31.20;35.30;;;;;;4914287;29;20458;-85
2023/06/18 09:49:13;;;;;;;7.93;7.23;;;31.20;32.40;;;;;;4906118;29;20510;-86
2023/06/18 09:51:41;;;;;;;8.17;7.37;;;31.00;32.80;;;;;;4920759;29;20489;-84
2023/06/18 09:54:10;;;;;;;8.40;7.00;;;31.10;31.90;;;;;;4906597;29;20467;-86
2023/06/18 09:56:39;;;;;;;9.17;7.70;;;31.20;30.90;;;;;;4917407;29;20454;-86
2023/06/18 09:59:06;;;;;;;8.77;7.57;;;31.30;30.50;;;;;;4899346;29;20505;-85
2023/06/18 10:01:46;;;;;;;7.30;6.60;;;31.50;31.60;;;;;;4922670;29;20954;-87
2023/06/18 10:04:14;;;;;;;7.77;6.90;;;31.60;30.50;;;;;;4923917;29;20473;-86
2023/06/18 10:06:46;;;;;;;10.10;7.00;;;32.00;31.00;;;;;;4899971;29;20509;-86
2023/06/18 10:09:13;;;;;;;9.70;8.40;;;32.30;29.60;;;;;;4915831;29;20472;-86
2023/06/18 10:11:41;;;;;;;7.80;7.10;;;32.10;29.30;;;;;;4931413;29;20458;-85
2023/06/18 10:14:11;;;;;;;8.20;7.03;;;32.00;28.70;;;;;;4915533;29;20452;-86
2023/06/18 10:16:42;;;;;;;7.80;7.10;;;32.30;29.80;;;;;;4926895;29;20509;-85
2023/06/18 10:19:15;;;;;;;13.90;7.13;;;32.60;30.50;;;;;;4898921;29;20478;-86
2023/06/18 10:21:50;;;;;;;10.17;7.40;;;32.70;28.30;;;;;;4909982;29;20442;-86
2023/06/18 10:24:18;;;;;;;7.77;6.93;;;32.80;28.50;;;;;;4921705;29;21858;-85
2023/06/18 10:26:47;;;;;;;7.67;6.97;;;33.00;28.90;;;;;;4932722;29;20454;-87
2023/06/18 10:29:14;;;;;;;8.17;7.30;;;33.00;27.80;;;;;;4934676;28;20462;-86
2023/06/18 10:31:42;;;;;;;7.60;6.90;;;33.30;27.00;;;;;;4937751;29;20493;-85
2023/06/18 10:34:09;;;;;;;8.77;7.50;;;33.20;26.60;;;;;;4916975;29;20487;-86
2023/06/18 10:36:38;;;;;;;8.33;7.27;;;33.10;27.30;;;;;;4926400;29;20454;-86
2023/06/18 10:39:05;;;;;;;7.20;6.50;;;33.20;27.80;;;;;;4911946;29;20471;-85
2023/06/18 10:41:32;;;;;;;11.20;6.77;;;33.40;27.20;;;;;;4911359;29;20458;-85
2023/06/18 10:43:59;;;;;;;7.13;6.43;;;33.40;27.00;;;;;;4925891;29;21109;-86
2023/06/18 10:46:28;;;;;;;6.77;6.27;;;33.80;27.20;;;;;;4910682;29;20463;-85
2023/06/18 10:49:19;;;;;;;8.60;7.80;;;34.00;26.70;;;;;;4927079;29;20978;-85
2023/06/18 10:52:25;;;;;;;7.80;6.97;;;34.20;27.20;;;;;;4935498;29;20451;-85
2023/06/18 10:54:55;;;;;;;7.97;7.33;;;34.30;27.40;;;;;;4928845;29;20462;-85
2023/06/18 10:57:27;;;;;;;8.23;7.30;;;34.30;25.50;;;;;;4908185;29;20485;-84
2023/06/18 10:59:57;;;;;;;9.37;7.23;;;34.40;24.30;;;;;;4907796;29;20765;-87
2023/06/18 11:02:32;;;;;;;7.50;6.80;;;34.20;24.30;;;;;;4921376;29;21232;-87
2023/06/18 11:05:00;;;;;;;7.67;6.70;;;34.00;24.90;;;;;;4927509;29;22318;-87
2023/06/18 11:07:27;;;;;;;7.77;6.97;;;33.90;24.70;;;;;;4926701;29;20960;-88
2023/06/18 11:09:58;;;;;;;8.60;7.80;;;33.70;23.60;;;;;;4923736;29;20557;-87
2023/06/18 11:12:27;;;;;;;8.00;6.60;;;33.60;24.50;;;;;;4923161;29;20464;-87
2023/06/18 11:15:21;;;;;;;7.80;7.10;;;33.60;24.40;;;;;;4922724;29;20984;-88
2023/06/18 11:17:50;;;;;;;7.43;6.73;;;34.10;25.90;;;;;;4881942;29;20447;-88
2023/06/18 11:20:19;;;;;;;7.03;6.40;;;34.50;24.50;;;;;;4928746;29;20475;-89
2023/06/18 11:22:47;;;;;;;9.87;6.80;;;34.50;24.30;;;;;;4909237;29;20483;-86
2023/06/18 11:25:18;;;;;;;7.13;6.40;;;34.60;24.10;;;;;;4903822;29;20542;-87
2023/06/18 11:27:48;;;;;;;7.97;7.10;;;34.70;24.50;;;;;;4912519;29;20458;-86
2023/06/18 11:30:17;;;;;;;8.50;6.67;;;34.60;23.60;;;;;;4920392;29;20467;-86
2023/06/18 11:32:46;;;;;;;7.10;6.50;;;34.50;22.80;;;;;;4910206;29;20975;-87
2023/06/18 11:35:14;;;;;;;9.87;7.50;;;34.40;23.40;;;;;;4926258;29;20541;-87
2023/06/18 11:37:43;;;;;;;6.80;6.20;;;33.90;23.20;;;;;;4913209;29;20439;-87
2023/06/18 11:40:11;;;;;;;9.37;6.80;;;33.90;24.30;;;;;;4926369;29;20481;-90
2023/06/18 11:42:50;;;;;;;9.03;6.90;;;34.00;24.40;;;;;;4936560;29;20454;-86
2023/06/18 11:45:18;;;;;;;8.17;7.30;;;33.80;23.90;;;;;;4937458;28;20446;-88
2023/06/18 11:47:47;;;;;;;7.33;6.63;;;34.10;24.70;;;;;;4932983;29;20459;-86
2023/06/18 11:50:14;;;;;;;7.53;6.90;;;34.30;24.50;;;;;;4934309;29;20532;-86
2023/06/18 11:52:42;;;;;;;7.87;7.17;;;34.00;23.50;;;;;;4939879;29;20482;-87
2023/06/18 11:55:09;;;;;;;7.57;6.90;;;34.00;23.20;;;;;;4935948;29;20519;-86
2023/06/18 11:57:37;;;;;;;7.57;6.93;;;34.20;23.60;;;;;;4916478;29;20454;-86
2023/06/18 12:00:08;;;;;;;7.17;6.57;;;34.40;23.40;;;;;;4922650;29;20475;-88
2023/06/18 12:02:40;;;;;;;8.47;6.60;;;34.50;23.20;;;;;;4920479;29;20639;-86
2023/06/18 12:05:08;;;;;;;7.17;6.47;;;34.20;22.70;;;;;;4915199;29;20844;-85
2023/06/18 12:07:38;;;;;;;6.83;6.23;;;34.10;22.40;;;;;;4931165;29;20450;-85
2023/06/18 12:10:07;;;;;;;7.47;6.50;;;34.20;22.40;;;;;;4899442;29;20463;-86
2023/06/18 12:12:41;;;;;;;7.17;6.43;;;34.30;23.20;;;;;;4919603;29;20446;-86
2023/06/18 12:15:16;;;;;;;8.73;6.50;;;34.30;22.50;;;;;;4934303;28;20466;-85
2023/06/18 12:17:52;;;;;;;7.07;6.47;;;34.40;23.70;;;;;;4934131;29;20801;-85
2023/06/18 12:20:21;;;;;;;6.47;5.97;;;34.60;22.50;;;;;;4945035;28;22575;-85
2023/06/18 12:22:49;;;;;;;7.27;6.57;;;34.90;23.00;;;;;;4900176;29;20994;-87
2023/06/18 12:25:17;;;;;;;7.37;6.77;;;34.80;21.80;;;;;;4916858;29;20462;-86
2023/06/18 12:27:45;;;;;;;7.03;6.43;;;34.70;21.70;;;;;;4919488;29;21174;-86
2023/06/18 12:30:14;;;;;;;7.20;6.43;;;34.70;22.00;;;;;;4945239;28;20573;-86
2023/06/18 12:32:40;;;;;;;7.10;5.93;;;34.70;20.20;;;;;;4934019;29;20461;-87
2023/06/18 12:35:13;;;;;;;7.97;6.43;;;34.60;21.50;;;;;;4902396;29;20473;-86
2023/06/18 12:37:42;;;;;;;7.13;6.43;;;34.90;21.70;;;;;;4922063;29;20455;-87
2023/06/18 12:40:14;;;;;;;7.80;7.00;;;34.70;21.30;;;;;;4908367;29;20480;-88
2023/06/18 12:42:41;;;;;;;6.70;6.17;;;34.70;20.90;;;;;;4911239;29;20454;-87
2023/06/18 12:45:09;;;;;;;7.43;6.73;;;34.60;21.20;;;;;;4904771;29;20454;-87
2023/06/18 12:47:42;;;;;;;6.60;6.10;;;34.80;21.10;;;;;;4916200;29;20528;-86